Pemberville, OH (43450)

5:57 PM EST on December 10, 2016 (GMT -0500)
Lemoyne | | Change Station
Active Advisory: Winter Weather Advisory

Elev 640 ft 41.49 °N, 83.47 °W | Updated 13 seconds ago

Mostly Cloudy
Mostly Cloudy
25.9 °F
Feels Like 17 °F
N
9.2
Wind Variable Wind from NE
Gusts 9.8 mph

Today
High -- | Low -- °F
--% Chance of Precip.
Yesterday
High -- | Low -- °F
Precip. -- in
Pressure 30.48 in
Visibility 10.0 miles
Clouds Mostly Cloudy 3300 ft
Overcast 4400 ft
Windchill 17 °F
Dew Point 15 °F
Humidity 62%
Rainfall 0.00 in
Snow Depth Not available.
7:49 AM 5:04 PM
Waxing Gibbous, 87% visible
METAR KTDZ 102253Z AUTO 23010KT 10SM BKN033 OVC044 M03/M09 A3045 RMK AO2 SLP320 T10281089
Pressure 30.48 in
Visibility 10.0 miles
Clouds Mostly Cloudy 3300 ft
Overcast 4400 ft
Windchill 17 °F
Dew Point 15 °F
Humidity 62%
Rainfall 0.00 in
Snow Depth Not available.
7:49 AM 5:04 PM
Waxing Gibbous, 87% visible
METAR KTDZ 102253Z AUTO 23010KT 10SM BKN033 OVC044 M03/M09 A3045 RMK AO2 SLP320 T10281089

10-Day Weather Forecast

Almanac

Astronomy

Dec. 10, 2016 Rise Set
Actual Time
Civil Twilight
Nautical Twilight
Astronomical Twilight
Moon
Length of Visible Light
Length of Day
Tomorrow will be .
, % of the Moon is Illuminated

Today's Extremes

State Highs State Lows

Community

WunderPhotos

Upload Photos

1,956,672 photos uploaded!

WunderBlog® & News

Nearby

Air Quality

  Air Quality AQ Index Pollutant
Not available.

Snow Depth

Station Depth Elevation

Earthquake Activity

City Distance Mag. Time & Date
Minimum magnitude displayed is 2.5.

Coastal Water Temperatures

Place Temperature

Stations

Nearby Weather Stations

Station Location Temp. Windchill Dew Point Humidity Wind Precip. Elev Updated Type
                   

Watches & Warnings

Winter Weather Advisory
Issued: 3:11 PM EST Dec. 10, 2016 – National Weather Service

... Winter Weather Advisory remains in effect from 10 PM this
evening to 4 am EST Monday...

* accumulations... snow accumulation 1 to 3 inches tonight and 2 to
5 inches Sunday making for a storm total of 4 to 8 inches by
late Sunday night. The highest accumulations will likely occur
near the Toledo area.

* Timing... snow will develop tonight and continue Sunday. The
snow may mix with rain Sunday evening... especially south of the
Turnpike... before ending late Sunday night.

* Impacts... snow covered roads and walkways. Hazardous driving
conditions on untreated roads with reduced visibilities.

* Winds... south 5 to 10 mph tonight. South 10 to 15 mph with
gusts up to 25 mph later Sunday.

* Temperatures... in the lower 20s tonight rising to the lower 30s
Sunday.

Precautionary/preparedness actions...

A Winter Weather Advisory for snow is issued when moderate
amounts of accumulating snow will cause travel difficulties. Be
prepared for snow covered roads and limited visibilities... and
use caution while driving.